createdAt,value
2022-08-07T00:02:40.754Z,27.00
2022-08-07T00:07:27.309Z,27.00
2022-08-07T00:12:31.764Z,27.00
2022-08-07T00:17:36.053Z,27.00
2022-08-07T00:22:40.960Z,27.00
2022-08-07T00:27:53.774Z,27.00
2022-08-07T00:33:02.141Z,27.00
2022-08-07T00:38:07.656Z,27.00
2022-08-07T00:43:59.753Z,26.90
2022-08-07T00:48:36.618Z,27.00
2022-08-07T00:53:55.048Z,27.00
2022-08-07T00:58:59.070Z,27.00
2022-08-07T01:04:06.428Z,27.00
2022-08-07T01:09:35.554Z,26.90
2022-08-07T01:14:37.042Z,26.90
2022-08-07T01:19:42.050Z,26.90
2022-08-07T01:24:59.597Z,26.90
2022-08-07T01:30:05.389Z,26.90
2022-08-07T01:35:09.849Z,26.90
2022-08-07T01:40:22.837Z,26.90
2022-08-07T01:45:37.248Z,26.90
2022-08-07T01:50:55.560Z,26.90
2022-08-07T01:56:05.532Z,26.90
2022-08-07T02:01:59.213Z,26.90
2022-08-07T02:06:37.515Z,26.90
2022-08-07T02:12:03.591Z,26.80
2022-08-07T02:17:11.815Z,26.80
2022-08-07T02:22:21.264Z,26.80
2022-08-07T02:27:34.365Z,26.80
2022-08-07T02:32:39.432Z,26.80
2022-08-07T02:38:04.028Z,26.80
2022-08-07T02:43:12.732Z,26.80
2022-08-07T02:48:17.989Z,26.80
2022-08-07T02:53:30.073Z,26.80
2022-08-07T02:58:36.045Z,26.80
2022-08-07T03:03:50.598Z,26.80
2022-08-07T03:09:02.868Z,26.80
2022-08-07T03:14:08.543Z,26.70
2022-08-07T03:19:13.727Z,26.70
2022-08-07T03:24:27.197Z,26.70
2022-08-07T03:29:49.663Z,26.70
2022-08-07T03:35:17.609Z,26.70
2022-08-07T03:40:31.234Z,26.70
2022-08-07T03:45:47.695Z,26.70
2022-08-07T03:50:57.866Z,26.70
2022-08-07T03:56:13.756Z,26.70
2022-08-07T04:01:22.419Z,26.70
2022-08-07T04:06:37.045Z,26.70
2022-08-07T04:12:25.275Z,26.60
2022-08-07T04:17:20.108Z,26.60
2022-08-07T04:22:28.887Z,26.60
2022-08-07T04:27:43.901Z,26.60
2022-08-07T04:32:58.024Z,26.60
2022-08-07T04:38:08.624Z,26.60
2022-08-07T04:43:16.507Z,26.60
2022-08-07T04:48:30.164Z,26.60
2022-08-07T04:54:01.428Z,26.60
2022-08-07T05:00:09.792Z,26.60
2022-08-07T05:04:50.140Z,26.60
2022-08-07T05:10:00.944Z,26.60
2022-08-07T05:15:23.016Z,26.50
2022-08-07T05:20:40.422Z,26.50
2022-08-07T05:26:11.238Z,26.50
2022-08-07T05:31:14.650Z,26.50
2022-08-07T05:36:32.191Z,26.50
2022-08-07T05:42:01.651Z,26.50
2022-08-07T05:47:18.042Z,26.50
2022-08-07T05:52:32.237Z,26.50
2022-08-07T05:57:42.404Z,26.50
2022-08-07T06:02:52.205Z,26.50
2022-08-07T06:08:13.748Z,26.50
2022-08-07T06:14:10.350Z,26.50
2022-08-07T06:18:55.560Z,26.40
2022-08-07T06:24:46.178Z,26.50
2022-08-07T06:29:28.670Z,26.50
2022-08-07T06:34:33.682Z,26.40
2022-08-07T06:40:17.187Z,26.50
2022-08-07T06:45:05.931Z,26.40
2022-08-07T06:50:16.117Z,26.40
2022-08-07T06:55:59.834Z,26.40
2022-08-07T07:00:53.441Z,26.40
2022-08-07T07:06:04.772Z,26.40
2022-08-07T07:11:13.154Z,26.40
2022-08-07T07:16:22.064Z,26.40
2022-08-07T07:21:40.554Z,26.40
2022-08-07T07:26:55.339Z,26.40
2022-08-07T07:32:03.202Z,26.40
2022-08-07T07:37:21.864Z,26.40
2022-08-07T07:42:34.264Z,26.40
2022-08-07T07:47:52.488Z,26.40
2022-08-07T07:52:57.313Z,26.40
2022-08-07T07:58:06.677Z,26.40
2022-08-07T08:03:16.313Z,26.40
2022-08-07T08:08:35.262Z,26.40
2022-08-07T08:13:52.862Z,26.40
2022-08-07T08:19:09.881Z,26.40
2022-08-07T08:24:44.826Z,26.40
2022-08-07T08:29:54.405Z,26.40
2022-08-07T08:35:00.768Z,26.40
2022-08-07T08:40:12.346Z,26.40
2022-08-07T08:45:41.861Z,26.40
2022-08-07T08:50:56.782Z,26.30
2022-08-07T08:56:04.247Z,26.40
2022-08-07T09:01:18.522Z,26.40
2022-08-07T09:06:34.678Z,26.40
2022-08-07T09:11:53.193Z,26.40
2022-08-07T09:17:11.042Z,26.40
2022-08-07T09:24:28.966Z,26.40
2022-08-07T09:28:00.375Z,26.40
2022-08-07T09:33:41.190Z,26.40
2022-08-07T09:38:55.561Z,26.30
2022-08-07T09:44:10.334Z,26.30
2022-08-07T09:50:02.104Z,26.30
2022-08-07T09:55:29.418Z,26.30
2022-08-07T10:00:59.282Z,26.30
2022-08-07T10:06:49.082Z,26.30
2022-08-07T10:12:18.103Z,26.30
2022-08-07T10:18:00.868Z,26.40
2022-08-07T10:24:05.920Z,26.30
2022-08-07T10:29:04.808Z,26.30
2022-08-07T10:34:27.237Z,26.30
2022-08-07T10:40:03.283Z,26.30
2022-08-07T10:45:44.671Z,26.30
2022-08-07T10:50:54.867Z,26.30
2022-08-07T10:56:06.581Z,26.30
2022-08-07T11:01:35.190Z,26.30
2022-08-07T11:07:00.596Z,26.30
2022-08-07T11:12:18.974Z,26.30
2022-08-07T11:17:46.085Z,26.30
2022-08-07T11:22:56.814Z,26.30
2022-08-07T11:28:08.458Z,26.30
2022-08-07T11:33:54.066Z,26.30
2022-08-07T11:38:59.017Z,26.30
2022-08-07T11:44:14.270Z,26.30
2022-08-07T11:50:31.033Z,26.30
2022-08-07T11:56:25.604Z,26.30
2022-08-07T12:01:11.201Z,26.30
2022-08-07T12:06:50.744Z,26.30
2022-08-07T12:12:10.001Z,26.30
2022-08-07T12:17:33.910Z,26.30
2022-08-07T12:22:56.297Z,26.30
2022-08-07T12:28:10.098Z,26.30
2022-08-07T12:33:28.393Z,26.30
2022-08-07T12:38:47.457Z,26.30
2022-08-07T12:44:05.299Z,26.30
2022-08-07T12:49:25.416Z,26.30
2022-08-07T12:54:54.488Z,26.30
2022-08-07T13:00:00.113Z,26.30
2022-08-07T13:06:01.789Z,26.30
2022-08-07T13:10:55.930Z,26.30
2022-08-07T13:16:03.870Z,26.30
2022-08-07T13:21:51.125Z,26.30
2022-08-07T13:26:46.341Z,26.30
2022-08-07T13:31:57.475Z,26.40
2022-08-07T13:37:10.639Z,26.40
2022-08-07T13:42:21.546Z,26.40
2022-08-07T13:47:29.557Z,26.30
2022-08-07T13:52:57.190Z,26.40
2022-08-07T13:58:27.923Z,26.40
2022-08-07T14:04:05.318Z,26.40
2022-08-07T14:09:06.459Z,26.40
2022-08-07T14:14:12.384Z,26.40
2022-08-07T14:20:41.784Z,26.40
2022-08-07T14:24:51.736Z,26.50
2022-08-07T14:30:05.538Z,26.50
2022-08-07T14:35:45.327Z,26.50
2022-08-07T14:40:49.408Z,26.50
2022-08-07T14:45:56.575Z,26.50
2022-08-07T14:51:03.435Z,26.50
2022-08-07T15:01:42.880Z,26.60
2022-08-07T15:06:55.010Z,26.60
2022-08-07T15:12:06.884Z,26.60
2022-08-07T15:17:16.802Z,26.70
2022-08-07T15:28:01.919Z,26.70
2022-08-07T15:33:19.461Z,26.80
2022-08-07T15:38:30.899Z,26.80
2022-08-07T15:43:56.030Z,26.90
2022-08-07T15:49:13.330Z,26.90
2022-08-07T15:54:18.322Z,26.90
2022-08-07T15:59:40.013Z,27.00
2022-08-07T16:04:48.069Z,27.00
2022-08-07T16:09:54.790Z,27.00
2022-08-07T16:15:55.386Z,27.10
2022-08-07T16:21:43.674Z,27.10
2022-08-07T16:26:30.786Z,27.10
2022-08-07T16:31:50.456Z,27.20
2022-08-07T16:38:03.447Z,27.20
2022-08-07T16:43:21.705Z,27.20
2022-08-07T16:50:27.097Z,27.30
2022-08-07T16:55:11.533Z,27.30
2022-08-07T17:00:30.186Z,27.30
2022-08-07T17:06:19.850Z,27.40
2022-08-07T17:11:28.150Z,27.40
2022-08-07T17:16:56.918Z,27.40
2022-08-07T17:22:04.369Z,27.40
2022-08-07T17:27:20.039Z,27.50
2022-08-07T17:32:35.626Z,27.50
2022-08-07T17:38:06.897Z,27.50
2022-08-07T17:43:18.667Z,27.60
2022-08-07T17:48:31.220Z,27.60
2022-08-07T17:54:01.998Z,27.60
2022-08-07T17:59:19.804Z,27.60
2022-08-07T18:04:34.706Z,27.60
2022-08-07T18:09:48.220Z,27.60
2022-08-07T18:15:13.054Z,27.70
2022-08-07T18:21:12.716Z,27.70
2022-08-07T18:25:51.077Z,27.70
2022-08-07T18:31:19.776Z,27.70
2022-08-07T18:36:33.400Z,27.60
2022-08-07T18:41:55.925Z,27.60
2022-08-07T18:47:22.459Z,27.60
2022-08-07T18:52:54.460Z,27.60
2022-08-07T18:58:23.734Z,27.60
2022-08-07T19:03:44.425Z,27.60
2022-08-07T19:09:09.500Z,27.50
2022-08-07T19:14:51.948Z,27.50
2022-08-07T19:20:06.192Z,27.50
2022-08-07T19:26:21.901Z,27.50
2022-08-07T19:31:38.207Z,27.40
2022-08-07T19:36:28.220Z,27.40
2022-08-07T19:42:05.621Z,27.40
2022-08-07T19:47:08.487Z,27.40
2022-08-07T19:52:19.570Z,27.40
2022-08-07T19:58:00.784Z,27.30
2022-08-07T20:02:57.543Z,27.30
2022-08-07T20:08:10.064Z,27.30
2022-08-07T20:13:23.058Z,27.30
2022-08-07T20:18:33.372Z,27.30
2022-08-07T20:23:48.461Z,27.30
2022-08-07T20:28:59.323Z,27.30
2022-08-07T20:34:03.912Z,27.30
2022-08-07T20:39:17.817Z,27.30
2022-08-07T20:44:36.893Z,27.20
2022-08-07T20:50:00.497Z,27.20
2022-08-07T20:55:08.343Z,27.20
2022-08-07T21:00:17.750Z,27.20
2022-08-07T21:05:42.580Z,27.20
2022-08-07T21:10:50.365Z,27.20
2022-08-07T21:15:59.660Z,27.20
2022-08-07T21:21:05.395Z,27.20
2022-08-07T21:26:23.530Z,27.20
2022-08-07T21:32:43.159Z,27.20
2022-08-07T21:37:05.719Z,27.10
2022-08-07T21:42:48.384Z,27.10
2022-08-07T21:48:02.581Z,27.10
2022-08-07T21:53:12.381Z,27.10
2022-08-07T21:58:32.900Z,27.10
2022-08-07T22:03:42.284Z,27.10
2022-08-07T22:08:51.345Z,27.10
2022-08-07T22:13:57.557Z,27.10
2022-08-07T22:19:08.710Z,27.10
2022-08-07T22:24:19.014Z,27.10
2022-08-07T22:29:37.767Z,27.00
2022-08-07T22:34:55.906Z,27.10
2022-08-07T22:40:08.710Z,27.10
2022-08-07T22:46:04.293Z,27.00
2022-08-07T22:50:56.661Z,27.00
2022-08-07T22:56:02.088Z,27.00
2022-08-07T23:01:50.907Z,27.00
2022-08-07T23:07:25.796Z,27.00
2022-08-07T23:12:52.793Z,27.00
2022-08-07T23:18:17.979Z,27.00
2022-08-07T23:24:11.085Z,27.00
2022-08-07T23:29:43.644Z,27.00
2022-08-07T23:35:18.289Z,27.00
2022-08-07T23:40:34.722Z,26.90
2022-08-07T23:46:02.940Z,26.90
2022-08-07T23:53:01.647Z,26.90
2022-08-07T23:56:53.825Z,26.90
